sensor_id;sensor_type;location;lat;lon;timestamp;pressure;altitude;pressure_sealevel;temperature;humidity
22104;BME280;11218;48.886;9.426;2023-05-08T00:00:23;98247.69;;;15.71;93.19
22104;BME280;11218;48.886;9.426;2023-05-08T00:02:51;98240.66;;;15.65;93.08
22104;BME280;11218;48.886;9.426;2023-05-08T00:05:19;98242.00;;;15.68;92.69
22104;BME280;11218;48.886;9.426;2023-05-08T00:07:49;98241.47;;;15.66;92.75
22104;BME280;11218;48.886;9.426;2023-05-08T00:10:19;98242.84;;;15.63;92.65
22104;BME280;11218;48.886;9.426;2023-05-08T00:12:47;98245.81;;;15.62;92.67
22104;BME280;11218;48.886;9.426;2023-05-08T00:15:18;98242.59;;;15.60;92.78
22104;BME280;11218;48.886;9.426;2023-05-08T00:17:46;98239.88;;;15.55;92.79
22104;BME280;11218;48.886;9.426;2023-05-08T00:20:14;98235.00;;;15.52;92.93
22104;BME280;11218;48.886;9.426;2023-05-08T00:22:43;98241.78;;;15.54;93.10
22104;BME280;11218;48.886;9.426;2023-05-08T00:25:12;98241.50;;;15.51;93.06
22104;BME280;11218;48.886;9.426;2023-05-08T00:27:41;98240.16;;;15.48;93.35
22104;BME280;11218;48.886;9.426;2023-05-08T00:30:10;98238.53;;;15.47;93.31
22104;BME280;11218;48.886;9.426;2023-05-08T00:32:39;98238.81;;;15.45;93.72
22104;BME280;11218;48.886;9.426;2023-05-08T00:35:07;98247.22;;;15.44;93.01
22104;BME280;11218;48.886;9.426;2023-05-08T00:37:36;98252.66;;;15.44;93.25
22104;BME280;11218;48.886;9.426;2023-05-08T00:40:07;98249.13;;;15.43;93.24
22104;BME280;11218;48.886;9.426;2023-05-08T00:42:37;98248.03;;;15.44;92.99
22104;BME280;11218;48.886;9.426;2023-05-08T00:45:07;98250.47;;;15.46;92.68
22104;BME280;11218;48.886;9.426;2023-05-08T00:47:36;98254.00;;;15.47;92.25
22104;BME280;11218;48.886;9.426;2023-05-08T00:50:06;98249.13;;;15.43;92.17
22104;BME280;11218;48.886;9.426;2023-05-08T00:52:39;98245.88;;;15.41;92.55
22104;BME280;11218;48.886;9.426;2023-05-08T00:55:11;98257.81;;;15.45;92.73
22104;BME280;11218;48.886;9.426;2023-05-08T00:57:41;98248.84;;;15.45;92.95
22104;BME280;11218;48.886;9.426;2023-05-08T01:00:15;98250.75;;;15.44;93.33
22104;BME280;11218;48.886;9.426;2023-05-08T01:02:44;98249.66;;;15.45;93.29
22104;BME280;11218;48.886;9.426;2023-05-08T01:05:13;98247.22;;;15.44;92.99
22104;BME280;11218;48.886;9.426;2023-05-08T01:07:41;98246.41;;;15.43;93.16
22104;BME280;11218;48.886;9.426;2023-05-08T01:10:10;98245.06;;;15.41;93.36
22104;BME280;11218;48.886;9.426;2023-05-08T01:12:54;98244.81;;;15.37;93.51
22104;BME280;11218;48.886;9.426;2023-05-08T01:15:28;98248.34;;;15.38;93.40
22104;BME280;11218;48.886;9.426;2023-05-08T01:18:05;98250.50;;;15.36;93.72
22104;BME280;11218;48.886;9.426;2023-05-08T01:20:45;98252.41;;;15.30;93.28
22104;BME280;11218;48.886;9.426;2023-05-08T01:30:14;98254.34;;;15.15;94.66
22104;BME280;11218;48.886;9.426;2023-05-08T01:32:49;98255.16;;;15.15;94.53
22104;BME280;11218;48.886;9.426;2023-05-08T01:35:26;98249.19;;;15.18;94.40
22104;BME280;11218;48.886;9.426;2023-05-08T01:38:00;98261.13;;;15.22;94.39
22104;BME280;11218;48.886;9.426;2023-05-08T01:40:33;98260.84;;;15.24;93.87
22104;BME280;11218;48.886;9.426;2023-05-08T01:43:09;98267.06;;;15.29;93.12
22104;BME280;11218;48.886;9.426;2023-05-08T01:45:44;98260.56;;;15.30;92.61
22104;BME280;11218;48.886;9.426;2023-05-08T01:48:24;98273.59;;;15.28;92.91
22104;BME280;11218;48.886;9.426;2023-05-08T01:50:57;98271.41;;;15.30;93.14
22104;BME280;11218;48.886;9.426;2023-05-08T01:53:28;98275.75;;;15.31;93.23
22104;BME280;11218;48.886;9.426;2023-05-08T01:55:59;98277.91;;;15.34;93.17
22104;BME280;11218;48.886;9.426;2023-05-08T01:58:31;98286.31;;;15.38;92.77
22104;BME280;11218;48.886;9.426;2023-05-08T02:01:01;98283.34;;;15.34;92.96
22104;BME280;11218;48.886;9.426;2023-05-08T02:03:33;98281.72;;;15.33;93.03
22104;BME280;11218;48.886;9.426;2023-05-08T02:06:03;98284.44;;;15.33;93.05
22104;BME280;11218;48.886;9.426;2023-05-08T02:08:32;98286.88;;;15.35;92.61
22104;BME280;11218;48.886;9.426;2023-05-08T02:11:03;98283.06;;;15.31;93.15
22104;BME280;11218;48.886;9.426;2023-05-08T02:13:34;98282.25;;;15.30;92.92
22104;BME280;11218;48.886;9.426;2023-05-08T02:16:06;98279.81;;;15.34;93.03
22104;BME280;11218;48.886;9.426;2023-05-08T02:18:43;98289.31;;;15.31;93.52
22104;BME280;11218;48.886;9.426;2023-05-08T02:21:14;98278.19;;;15.28;93.30
22104;BME280;11218;48.886;9.426;2023-05-08T02:23:45;98286.06;;;15.24;93.40
22104;BME280;11218;48.886;9.426;2023-05-08T02:26:15;98282.81;;;15.17;94.19
22104;BME280;11218;48.886;9.426;2023-05-08T02:28:44;98288.53;;;15.10;94.52
22104;BME280;11218;48.886;9.426;2023-05-08T02:31:16;98284.47;;;14.93;95.81
22104;BME280;11218;48.886;9.426;2023-05-08T02:33:47;98289.34;;;14.96;96.18
22104;BME280;11218;48.886;9.426;2023-05-08T02:36:17;98287.72;;;14.95;96.04
22104;BME280;11218;48.886;9.426;2023-05-08T02:38:49;98283.66;;;14.92;96.47
22104;BME280;11218;48.886;9.426;2023-05-08T02:41:19;98281.22;;;14.96;96.73
22104;BME280;11218;48.886;9.426;2023-05-08T02:43:48;98287.44;;;14.96;95.97
22104;BME280;11218;48.886;9.426;2023-05-08T02:46:21;98277.97;;;14.94;96.29
22104;BME280;11218;48.886;9.426;2023-05-08T02:48:58;98282.84;;;14.97;96.52
22104;BME280;11218;48.886;9.426;2023-05-08T02:51:32;98288.25;;;14.97;96.53
22104;BME280;11218;48.886;9.426;2023-05-08T02:54:09;98290.69;;;15.03;96.65
22104;BME280;11218;48.886;9.426;2023-05-08T02:56:43;98296.38;;;15.07;95.85
22104;BME280;11218;48.886;9.426;2023-05-08T02:59:18;98296.13;;;15.03;96.10
22104;BME280;11218;48.886;9.426;2023-05-08T03:01:51;98283.38;;;14.99;95.83
22104;BME280;11218;48.886;9.426;2023-05-08T03:04:25;98278.78;;;14.89;97.24
22104;BME280;11218;48.886;9.426;2023-05-08T03:06:56;98284.72;;;14.91;96.97
22104;BME280;11218;48.886;9.426;2023-05-08T03:09:33;98289.63;;;14.89;97.48
22104;BME280;11218;48.886;9.426;2023-05-08T03:12:11;98282.84;;;14.87;97.95
22104;BME280;11218;48.886;9.426;2023-05-08T03:14:44;98279.59;;;14.90;97.83
22104;BME280;11218;48.886;9.426;2023-05-08T03:17:15;98279.03;;;14.93;97.00
22104;BME280;11218;48.886;9.426;2023-05-08T03:19:49;98279.03;;;14.88;97.00
22104;BME280;11218;48.886;9.426;2023-05-08T03:22:23;98278.78;;;14.89;96.85
22104;BME280;11218;48.886;9.426;2023-05-08T03:24:54;98277.41;;;14.92;96.71
22104;BME280;11218;48.886;9.426;2023-05-08T03:27:28;98278.50;;;14.91;97.09
22104;BME280;11218;48.886;9.426;2023-05-08T03:29:56;98279.84;;;14.93;97.01
22104;BME280;11218;48.886;9.426;2023-05-08T03:32:26;98283.38;;;14.94;96.85
22104;BME280;11218;48.886;9.426;2023-05-08T03:34:59;98283.66;;;14.97;96.54
22104;BME280;11218;48.886;9.426;2023-05-08T03:37:28;98280.41;;;15.00;96.38
22104;BME280;11218;48.886;9.426;2023-05-08T03:39:57;98277.41;;;15.02;96.01
22104;BME280;11218;48.886;9.426;2023-05-08T03:42:26;98275.50;;;15.02;96.19
22104;BME280;11218;48.886;9.426;2023-05-08T03:44:56;98282.03;;;15.01;95.64
22104;BME280;11218;48.886;9.426;2023-05-08T03:47:26;98289.34;;;14.96;95.17
22104;BME280;11218;48.886;9.426;2023-05-08T03:49:55;98279.63;;;14.85;95.47
22104;BME280;11218;48.886;9.426;2023-05-08T03:52:26;98284.75;;;14.81;96.22
22104;BME280;11218;48.886;9.426;2023-05-08T03:54:55;98283.94;;;14.81;96.10
22104;BME280;11218;48.886;9.426;2023-05-08T03:57:25;98291.00;;;14.82;96.04
22104;BME280;11218;48.886;9.426;2023-05-08T04:00:01;98284.22;;;14.79;96.81
22104;BME280;11218;48.886;9.426;2023-05-08T04:02:35;98286.66;;;14.81;96.71
22104;BME280;11218;48.886;9.426;2023-05-08T04:05:14;98280.44;;;14.80;96.81
22104;BME280;11218;48.886;9.426;2023-05-08T04:07:51;98282.31;;;14.79;96.87
22104;BME280;11218;48.886;9.426;2023-05-08T04:10:23;98282.59;;;14.78;97.28
22104;BME280;11218;48.886;9.426;2023-05-08T04:13:02;98287.19;;;14.77;97.02
22104;BME280;11218;48.886;9.426;2023-05-08T04:15:35;98288.56;;;14.80;97.42
22104;BME280;11218;48.886;9.426;2023-05-08T04:18:07;98289.63;;;14.79;97.42
22104;BME280;11218;48.886;9.426;2023-05-08T04:20:39;98296.41;;;14.82;97.10
22104;BME280;11218;48.886;9.426;2023-05-08T04:23:23;98293.69;;;14.87;96.27
22104;BME280;11218;48.886;9.426;2023-05-08T04:25:53;98295.31;;;14.88;96.57
22104;BME280;11218;48.886;9.426;2023-05-08T04:28:23;98297.47;;;14.91;96.06
22104;BME280;11218;48.886;9.426;2023-05-08T04:30:51;98301.00;;;14.91;95.83
22104;BME280;11218;48.886;9.426;2023-05-08T04:33:20;98309.66;;;14.93;95.96
22104;BME280;11218;48.886;9.426;2023-05-08T04:35:49;98303.72;;;14.96;95.74
22104;BME280;11218;48.886;9.426;2023-05-08T04:38:19;98304.78;;;15.00;95.83
22104;BME280;11218;48.886;9.426;2023-05-08T04:40:48;98307.50;;;15.00;95.72
22104;BME280;11218;48.886;9.426;2023-05-08T04:43:16;98309.66;;;15.03;95.38
22104;BME280;11218;48.886;9.426;2023-05-08T04:45:45;98313.75;;;15.06;95.42
22104;BME280;11218;48.886;9.426;2023-05-08T04:48:13;98309.41;;;15.10;94.83
22104;BME280;11218;48.886;9.426;2023-05-08T04:50:41;98329.19;;;15.10;94.81
22104;BME280;11218;48.886;9.426;2023-05-08T04:53:10;98327.03;;;15.12;94.52
22104;BME280;11218;48.886;9.426;2023-05-08T04:55:40;98327.28;;;15.11;95.20
22104;BME280;11218;48.886;9.426;2023-05-08T04:58:09;98328.38;;;15.10;95.53
22104;BME280;11218;48.886;9.426;2023-05-08T05:00:37;98334.34;;;15.12;95.66
22104;BME280;11218;48.886;9.426;2023-05-08T05:03:05;98334.34;;;15.12;95.43
22104;BME280;11218;48.886;9.426;2023-05-08T05:05:34;98338.69;;;15.13;94.91
22104;BME280;11218;48.886;9.426;2023-05-08T05:08:04;98337.59;;;15.14;95.17
22104;BME280;11218;48.886;9.426;2023-05-08T05:10:32;98336.50;;;15.10;95.39
22104;BME280;11218;48.886;9.426;2023-05-08T05:13:02;98339.22;;;15.10;95.12
22104;BME280;11218;48.886;9.426;2023-05-08T05:15:30;98340.31;;;15.04;95.35
22104;BME280;11218;48.886;9.426;2023-05-08T05:17:58;98339.22;;;15.05;95.18
22104;BME280;11218;48.886;9.426;2023-05-08T05:20:27;98346.53;;;15.04;95.28
22104;BME280;11218;48.886;9.426;2023-05-08T05:22:57;98343.56;;;15.06;95.21
22104;BME280;11218;48.886;9.426;2023-05-08T05:25:26;98345.72;;;15.09;95.43
22104;BME280;11218;48.886;9.426;2023-05-08T05:27:54;98350.63;;;15.12;95.55
22104;BME280;11218;48.886;9.426;2023-05-08T05:30:24;98348.72;;;15.12;95.95
22104;BME280;11218;48.886;9.426;2023-05-08T05:32:52;98351.69;;;15.16;95.57
22104;BME280;11218;48.886;9.426;2023-05-08T05:35:20;98349.25;;;15.20;95.65
22104;BME280;11218;48.886;9.426;2023-05-08T05:37:51;98354.41;;;15.21;95.61
22104;BME280;11218;48.886;9.426;2023-05-08T05:40:19;98348.44;;;15.24;95.56
22104;BME280;11218;48.886;9.426;2023-05-08T05:42:49;98354.41;;;15.26;95.22
22104;BME280;11218;48.886;9.426;2023-05-08T05:45:20;98354.69;;;15.25;95.67
22104;BME280;11218;48.886;9.426;2023-05-08T05:47:50;98358.47;;;15.29;95.39
22104;BME280;11218;48.886;9.426;2023-05-08T05:50:22;98349.53;;;15.28;94.91
22104;BME280;11218;48.886;9.426;2023-05-08T05:52:54;98355.50;;;15.25;95.48
22104;BME280;11218;48.886;9.426;2023-05-08T05:55:23;98356.84;;;15.28;95.27
22104;BME280;11218;48.886;9.426;2023-05-08T05:57:54;98353.06;;;15.24;95.41
22104;BME280;11218;48.886;9.426;2023-05-08T06:00:23;98357.41;;;15.25;95.64
22104;BME280;11218;48.886;9.426;2023-05-08T06:02:55;98355.50;;;15.25;95.69
22104;BME280;11218;48.886;9.426;2023-05-08T06:05:24;98354.41;;;15.31;95.15
22104;BME280;11218;48.886;9.426;2023-05-08T06:07:56;98362.56;;;15.26;95.50
22104;BME280;11218;48.886;9.426;2023-05-08T06:10:26;98353.06;;;15.29;95.74
22104;BME280;11218;48.886;9.426;2023-05-08T06:13:01;98353.88;;;15.34;95.34
22104;BME280;11218;48.886;9.426;2023-05-08T06:15:34;98359.00;;;15.41;95.70
22104;BME280;11218;48.886;9.426;2023-05-08T06:18:06;98357.13;;;15.36;95.67
22104;BME280;11218;48.886;9.426;2023-05-08T06:20:37;98360.63;;;15.42;95.88
22104;BME280;11218;48.886;9.426;2023-05-08T06:23:06;98370.13;;;15.44;95.34
22104;BME280;11218;48.886;9.426;2023-05-08T06:25:34;98358.75;;;15.42;95.59
22104;BME280;11218;48.886;9.426;2023-05-08T06:28:03;98361.44;;;15.48;96.14
22104;BME280;11218;48.886;9.426;2023-05-08T06:30:38;98361.16;;;15.54;95.30
22104;BME280;11218;48.886;9.426;2023-05-08T06:33:09;98358.72;;;15.53;95.75
22104;BME280;11218;48.886;9.426;2023-05-08T06:35:42;98367.44;;;15.60;95.12
22104;BME280;11218;48.886;9.426;2023-05-08T06:38:14;98356.28;;;15.56;95.47
22104;BME280;11218;48.886;9.426;2023-05-08T06:40:46;98366.31;;;15.66;95.39
22104;BME280;11218;48.886;9.426;2023-05-08T06:43:16;98369.81;;;15.71;95.65
22104;BME280;11218;48.886;9.426;2023-05-08T06:45:44;98365.75;;;15.74;94.68
22104;BME280;11218;48.886;9.426;2023-05-08T06:48:23;98375.22;;;15.82;93.92
22104;BME280;11218;48.886;9.426;2023-05-08T06:50:57;98369.25;;;15.85;94.28
22104;BME280;11218;48.886;9.426;2023-05-08T06:53:29;98371.13;;;15.89;94.68
22104;BME280;11218;48.886;9.426;2023-05-08T06:56:00;98361.63;;;15.92;94.67
22104;BME280;11218;48.886;9.426;2023-05-08T06:58:36;98360.25;;;15.94;94.38
22104;BME280;11218;48.886;9.426;2023-05-08T07:01:07;98370.00;;;16.05;94.75
22104;BME280;11218;48.886;9.426;2023-05-08T07:03:49;98371.63;;;16.12;94.15
22104;BME280;11218;48.886;9.426;2023-05-08T07:06:20;98372.44;;;16.12;94.05
22104;BME280;11218;48.886;9.426;2023-05-08T07:08:51;98374.84;;;16.19;93.60
22104;BME280;11218;48.886;9.426;2023-05-08T07:11:19;98364.81;;;16.14;93.42
22104;BME280;11218;48.886;9.426;2023-05-08T07:13:51;98378.38;;;16.19;93.37
22104;BME280;11218;48.886;9.426;2023-05-08T07:16:25;98370.78;;;16.16;93.26
22104;BME280;11218;48.886;9.426;2023-05-08T07:18:59;98383.56;;;16.16;93.25
22104;BME280;11218;48.886;9.426;2023-05-08T07:21:30;98373.53;;;16.11;93.01
22104;BME280;11218;48.886;9.426;2023-05-08T07:24:09;98386.28;;;16.10;93.26
22104;BME280;11218;48.886;9.426;2023-05-08T07:26:40;98375.72;;;16.04;93.47
22104;BME280;11218;48.886;9.426;2023-05-08T07:29:19;98379.53;;;16.03;93.30
22104;BME280;11218;48.886;9.426;2023-05-08T07:31:52;98384.94;;;16.08;93.94
22104;BME280;11218;48.886;9.426;2023-05-08T07:34:32;98382.50;;;16.01;93.10
22104;BME280;11218;48.886;9.426;2023-05-08T07:37:00;98380.34;;;16.03;93.15
22104;BME280;11218;48.886;9.426;2023-05-08T07:39:31;98396.34;;;16.05;93.89
22104;BME280;11218;48.886;9.426;2023-05-08T07:42:04;98392.28;;;16.07;93.92
22104;BME280;11218;48.886;9.426;2023-05-08T07:44:38;98393.09;;;16.03;93.92
22104;BME280;11218;48.886;9.426;2023-05-08T07:47:23;98388.75;;;16.02;94.24
22104;BME280;11218;48.886;9.426;2023-05-08T07:50:00;98392.28;;;16.07;94.40
22104;BME280;11218;48.886;9.426;2023-05-08T07:52:41;98398.25;;;16.09;94.39
22104;BME280;11218;48.886;9.426;2023-05-08T07:55:17;98388.72;;;16.12;93.98
22104;BME280;11218;48.886;9.426;2023-05-08T07:57:49;98386.81;;;16.13;94.27
22104;BME280;11218;48.886;9.426;2023-05-08T08:00:20;98394.38;;;16.31;92.83
22104;BME280;11218;48.886;9.426;2023-05-08T08:02:49;98398.44;;;16.28;93.60
22104;BME280;11218;48.886;9.426;2023-05-08T08:05:20;98399.44;;;16.42;93.23
22104;BME280;11218;48.886;9.426;2023-05-08T08:07:53;98394.31;;;16.36;93.50
22104;BME280;11218;48.886;9.426;2023-05-08T08:10:22;98406.22;;;16.45;93.64
22104;BME280;11218;48.886;9.426;2023-05-08T08:12:50;98398.31;;;16.54;93.69
22104;BME280;11218;48.886;9.426;2023-05-08T08:15:29;98398.06;;;16.50;93.56
22104;BME280;11218;48.886;9.426;2023-05-08T08:18:01;98391.56;;;16.46;93.40
22104;BME280;11218;48.886;9.426;2023-05-08T08:20:33;98395.06;;;16.52;93.16
22104;BME280;11218;48.886;9.426;2023-05-08T08:23:04;98398.81;;;16.61;91.74
22104;BME280;11218;48.886;9.426;2023-05-08T08:25:37;98406.16;;;16.60;92.00
22104;BME280;11218;48.886;9.426;2023-05-08T08:28:13;98404.84;;;16.53;92.27
22104;BME280;11218;48.886;9.426;2023-05-08T08:30:48;98400.22;;;16.53;92.79
22104;BME280;11218;48.886;9.426;2023-05-08T08:33:17;98413.50;;;16.60;91.78
22104;BME280;11218;48.886;9.426;2023-05-08T08:35:50;98405.66;;;16.53;92.62
22104;BME280;11218;48.886;9.426;2023-05-08T08:38:25;98419.19;;;16.63;92.71
22104;BME280;11218;48.886;9.426;2023-05-08T08:40:53;98408.88;;;16.65;92.69
22104;BME280;11218;48.886;9.426;2023-05-08T08:43:28;98415.66;;;16.68;92.44
22104;BME280;11218;48.886;9.426;2023-05-08T08:46:01;98404.50;;;16.69;91.52
22104;BME280;11218;48.886;9.426;2023-05-08T08:48:30;98403.44;;;16.65;91.62
22104;BME280;11218;48.886;9.426;2023-05-08T08:51:10;98405.03;;;16.71;91.93
22104;BME280;11218;48.886;9.426;2023-05-08T08:53:48;98420.25;;;16.78;91.99
22104;BME280;11218;48.886;9.426;2023-05-08T08:56:30;98413.66;;;16.89;90.23
22104;BME280;11218;48.886;9.426;2023-05-08T08:59:05;98411.25;;;16.82;90.05
22104;BME280;11218;48.886;9.426;2023-05-08T09:01:39;98406.88;;;16.86;90.26
22104;BME280;11218;48.886;9.426;2023-05-08T09:04:10;98412.81;;;16.93;90.43
22104;BME280;11218;48.886;9.426;2023-05-08T09:06:42;98413.84;;;17.02;90.44
22104;BME280;11218;48.886;9.426;2023-05-08T09:09:12;98422.78;;;17.08;89.93
22104;BME280;11218;48.886;9.426;2023-05-08T09:11:45;98414.31;;;17.09;89.85
22104;BME280;11218;48.886;9.426;2023-05-08T09:14:17;98409.94;;;17.14;89.41
22104;BME280;11218;48.886;9.426;2023-05-08T09:16:48;98409.94;;;17.14;89.31
22104;BME280;11218;48.886;9.426;2023-05-08T09:19:22;98417.00;;;17.15;89.26
22104;BME280;11218;48.886;9.426;2023-05-08T09:22:01;98412.84;;;17.22;89.84
22104;BME280;11218;48.886;9.426;2023-05-08T09:24:53;98424.22;;;17.29;89.41
22104;BME280;11218;48.886;9.426;2023-05-08T09:27:30;98411.97;;;17.32;89.03
22104;BME280;11218;48.886;9.426;2023-05-08T09:30:08;98415.50;;;17.32;88.71
22104;BME280;11218;48.886;9.426;2023-05-08T09:32:38;98417.41;;;17.32;86.61
22104;BME280;11218;48.886;9.426;2023-05-08T09:35:15;98419.88;;;17.28;87.31
22104;BME280;11218;48.886;9.426;2023-05-08T09:37:53;98419.59;;;17.30;87.76
22104;BME280;11218;48.886;9.426;2023-05-08T09:40:26;98421.22;;;17.31;88.02
22104;BME280;11218;48.886;9.426;2023-05-08T09:43:14;98418.28;;;17.22;88.14
22104;BME280;11218;48.886;9.426;2023-05-08T09:45:42;98413.94;;;17.21;88.15
22104;BME280;11218;48.886;9.426;2023-05-08T09:48:13;98420.78;;;17.19;88.38
22104;BME280;11218;48.886;9.426;2023-05-08T09:50:41;98427.88;;;17.15;88.40
22104;BME280;11218;48.886;9.426;2023-05-08T09:53:15;98421.97;;;17.07;88.31
22104;BME280;11218;48.886;9.426;2023-05-08T09:55:50;98420.34;;;17.06;88.29
22104;BME280;11218;48.886;9.426;2023-05-08T09:58:39;98432.03;;;17.07;89.13
22104;BME280;11218;48.886;9.426;2023-05-08T10:01:27;98416.56;;;17.02;88.40
22104;BME280;11218;48.886;9.426;2023-05-08T10:04:00;98424.75;;;16.97;88.68
22104;BME280;11218;48.886;9.426;2023-05-08T10:06:29;98422.81;;;17.03;89.42
22104;BME280;11218;48.886;9.426;2023-05-08T10:09:09;98423.28;;;17.10;89.42
22104;BME280;11218;48.886;9.426;2023-05-08T10:12:05;98415.38;;;17.14;89.52
22104;BME280;11218;48.886;9.426;2023-05-08T10:14:42;98424.28;;;17.24;89.80
22104;BME280;11218;48.886;9.426;2023-05-08T10:17:19;98426.09;;;17.34;88.83
22104;BME280;11218;48.886;9.426;2023-05-08T10:19:57;98419.31;;;17.31;87.68
22104;BME280;11218;48.886;9.426;2023-05-08T10:22:31;98416.59;;;17.31;88.76
22104;BME280;11218;48.886;9.426;2023-05-08T10:25:11;98419.56;;;17.35;88.21
22104;BME280;11218;48.886;9.426;2023-05-08T10:27:44;98423.09;;;17.35;87.87
22104;BME280;11218;48.886;9.426;2023-05-08T10:30:23;98415.41;;;17.42;88.25
22104;BME280;11218;48.886;9.426;2023-05-08T10:32:56;98415.09;;;17.49;87.29
22104;BME280;11218;48.886;9.426;2023-05-08T10:35:30;98412.41;;;17.44;86.37
22104;BME280;11218;48.886;9.426;2023-05-08T10:38:03;98408.31;;;17.47;86.68
22104;BME280;11218;48.886;9.426;2023-05-08T10:40:33;98412.94;;;17.46;86.92
22104;BME280;11218;48.886;9.426;2023-05-08T10:43:02;98406.19;;;17.38;87.02
22104;BME280;11218;48.886;9.426;2023-05-08T10:45:34;98422.81;;;17.37;87.60
22104;BME280;11218;48.886;9.426;2023-05-08T10:48:07;98410.06;;;17.32;88.24
22104;BME280;11218;48.886;9.426;2023-05-08T10:50:55;98417.41;;;17.32;88.45
22104;BME280;11218;48.886;9.426;2023-05-08T10:53:33;98411.72;;;17.28;88.61
22104;BME280;11218;48.886;9.426;2023-05-08T10:56:06;98415.00;;;17.25;89.05
22104;BME280;11218;48.886;9.426;2023-05-08T10:58:37;98426.19;;;17.24;89.15
22104;BME280;11218;48.886;9.426;2023-05-08T11:01:21;98414.22;;;17.20;89.38
22104;BME280;11218;48.886;9.426;2023-05-08T11:03:51;98404.19;;;17.15;89.32
22104;BME280;11218;48.886;9.426;2023-05-08T11:06:44;98410.69;;;17.19;90.41
22104;BME280;11218;48.886;9.426;2023-05-08T11:09:25;98404.69;;;17.22;90.60
22104;BME280;11218;48.886;9.426;2023-05-08T11:12:02;98413.63;;;17.28;91.73
22104;BME280;11218;48.886;9.426;2023-05-08T11:14:34;98411.44;;;17.30;91.46
22104;BME280;11218;48.886;9.426;2023-05-08T11:17:07;98416.84;;;17.35;91.89
22104;BME280;11218;48.886;9.426;2023-05-08T11:19:54;98405.75;;;17.26;92.54
22104;BME280;11218;48.886;9.426;2023-05-08T11:22:25;98408.50;;;17.21;93.11
22104;BME280;11218;48.886;9.426;2023-05-08T11:25:06;98408.50;;;17.21;93.96
22104;BME280;11218;48.886;9.426;2023-05-08T11:30:52;98407.44;;;17.17;94.55
22104;BME280;11218;48.886;9.426;2023-05-08T11:33:25;98401.97;;;17.22;94.67
22104;BME280;11218;48.886;9.426;2023-05-08T11:36:13;98404.22;;;17.10;95.10
22104;BME280;11218;48.886;9.426;2023-05-08T11:39:05;98394.78;;;17.02;95.45
22104;BME280;11218;48.886;9.426;2023-05-08T11:41:38;98389.88;;;17.04;95.71
22104;BME280;11218;48.886;9.426;2023-05-08T11:44:19;98399.44;;;17.02;95.32
22104;BME280;11218;48.886;9.426;2023-05-08T11:46:52;98404.59;;;17.03;95.72
22104;BME280;11218;48.886;9.426;2023-05-08T11:49:23;98404.34;;;17.00;96.11
22104;BME280;11218;48.886;9.426;2023-05-08T11:51:57;98398.09;;;16.99;96.65
22104;BME280;11218;48.886;9.426;2023-05-08T11:54:29;98396.13;;;17.05;96.47
22104;BME280;11218;48.886;9.426;2023-05-08T11:56:58;98396.34;;;17.08;96.45
22104;BME280;11218;48.886;9.426;2023-05-08T11:59:34;98392.88;;;17.03;96.14
22104;BME280;11218;48.886;9.426;2023-05-08T12:02:02;98394.16;;;17.11;96.28
22104;BME280;11218;48.886;9.426;2023-05-08T12:04:52;98384.63;;;17.13;95.99
22104;BME280;11218;48.886;9.426;2023-05-08T12:07:26;98396.00;;;17.20;94.67
22104;BME280;11218;48.886;9.426;2023-05-08T12:10:17;98391.09;;;17.22;93.88
22104;BME280;11218;48.886;9.426;2023-05-08T12:13:14;98404.13;;;17.25;93.76
22104;BME280;11218;48.886;9.426;2023-05-08T12:15:46;98401.97;;;17.22;93.23
22104;BME280;11218;48.886;9.426;2023-05-08T12:18:25;98401.22;;;17.12;93.36
22104;BME280;11218;48.886;9.426;2023-05-08T12:21:04;98400.41;;;17.11;93.94
22104;BME280;11218;48.886;9.426;2023-05-08T12:23:32;98403.63;;;17.18;94.09
22104;BME280;11218;48.886;9.426;2023-05-08T12:26:04;98401.19;;;17.17;94.50
22104;BME280;11218;48.886;9.426;2023-05-08T12:28:43;98405.25;;;17.19;94.56
22104;BME280;11218;48.886;9.426;2023-05-08T12:31:15;98391.94;;;17.18;94.69
22104;BME280;11218;48.886;9.426;2023-05-08T12:33:46;98406.53;;;17.32;94.77
22104;BME280;11218;48.886;9.426;2023-05-08T12:36:19;98399.94;;;17.38;94.33
22104;BME280;11218;48.886;9.426;2023-05-08T12:38:52;98401.97;;;17.56;93.61
22104;BME280;11218;48.886;9.426;2023-05-08T12:41:27;98397.00;;;17.63;92.37
22104;BME280;11218;48.886;9.426;2023-05-08T12:43:59;98398.28;;;17.76;92.50
22104;BME280;11218;48.886;9.426;2023-05-08T12:46:34;98389.16;;;17.86;90.94
22104;BME280;11218;48.886;9.426;2023-05-08T12:49:02;98389.81;;;18.01;90.62
22104;BME280;11218;48.886;9.426;2023-05-08T12:51:38;98393.34;;;18.02;88.81
22104;BME280;11218;48.886;9.426;2023-05-08T12:54:12;98401.41;;;18.12;89.23
22104;BME280;11218;48.886;9.426;2023-05-08T12:56:41;98394.22;;;18.21;86.73
22104;BME280;11218;48.886;9.426;2023-05-08T12:59:10;98396.44;;;18.19;88.12
22104;BME280;11218;48.886;9.426;2023-05-08T13:01:40;98389.97;;;18.34;87.60
22104;BME280;11218;48.886;9.426;2023-05-08T13:04:12;98391.72;;;18.49;85.96
22104;BME280;11218;48.886;9.426;2023-05-08T13:06:53;98380.75;;;18.54;85.50
22104;BME280;11218;48.886;9.426;2023-05-08T13:09:21;98382.81;;;18.62;85.52
22104;BME280;11218;48.886;9.426;2023-05-08T13:12:10;98381.78;;;18.77;82.28
22104;BME280;11218;48.886;9.426;2023-05-08T13:14:38;98377.75;;;18.74;83.28
22104;BME280;11218;48.886;9.426;2023-05-08T13:17:16;98384.44;;;18.82;82.64
22104;BME280;11218;48.886;9.426;2023-05-08T13:19:54;98378.31;;;18.90;80.81
22104;BME280;11218;48.886;9.426;2023-05-08T13:22:50;98375.22;;;18.96;81.58
22104;BME280;11218;48.886;9.426;2023-05-08T13:25:32;98372.66;;;19.05;77.87
22104;BME280;11218;48.886;9.426;2023-05-08T13:28:03;98377.34;;;19.18;79.36
22104;BME280;11218;48.886;9.426;2023-05-08T13:30:32;98375.22;;;19.15;80.41
22104;BME280;11218;48.886;9.426;2023-05-08T13:33:03;98360.25;;;19.13;81.43
22104;BME280;11218;48.886;9.426;2023-05-08T13:35:34;98376.47;;;19.23;81.49
22104;BME280;11218;48.886;9.426;2023-05-08T13:38:08;98374.03;;;19.21;81.67
22104;BME280;11218;48.886;9.426;2023-05-08T13:40:36;98371.09;;;19.18;81.50